Time;durP1;ratioP1;P1;durP2;ratioP2;P2;SDS_P1;SDS_P2;PMS_P1;PMS_P2;Temp;Humidity;BMP_temperature;BMP_pressure;BME280_temperature;BME280_humidity;BME280_pressure;Samples;Min_cycle;Max_cycle;Signal;HPM_P1;HPM_P2
2023/07/30 00:01:59;;;;;;;2.17;1.27;;;16.80;99.90;;;16.58;100.00;96817.47;5015726;28;20060;-37
2023/07/30 00:04:25;;;;;;;1.30;1.10;;;16.80;99.90;;;16.58;100.00;96821.03;5016909;28;20079;-38
2023/07/30 00:06:50;;;;;;;2.45;1.20;;;16.70;99.90;;;16.55;100.00;96820.38;5014753;28;20042;-37
2023/07/30 00:09:16;;;;;;;3.15;1.13;;;16.70;99.90;;;16.54;100.00;96816.84;5018209;28;20815;-37
2023/07/30 00:11:42;;;;;;;2.40;1.27;;;16.70;99.90;;;16.53;100.00;96807.19;5013132;28;20120;-37
2023/07/30 00:14:07;;;;;;;2.25;1.00;;;16.70;99.90;;;16.53;100.00;96825.81;5015113;28;20053;-38
2023/07/30 00:16:33;;;;;;;2.20;1.02;;;16.70;99.90;;;16.37;100.00;96799.41;5017367;28;20037;-38
2023/07/30 00:18:59;;;;;;;1.98;0.90;;;16.70;99.90;;;16.33;100.00;96802.38;5013231;28;20061;-38
2023/07/30 00:21:25;;;;;;;1.50;1.08;;;16.60;99.90;;;16.29;100.00;96822.19;5017461;28;20025;-38
2023/07/30 00:23:51;;;;;;;1.30;0.85;;;16.50;99.90;;;16.24;100.00;96827.84;5011943;28;20045;-39
2023/07/30 00:26:16;;;;;;;1.58;0.90;;;16.50;99.90;;;16.21;100.00;96826.22;5016910;28;20025;-39
2023/07/30 00:28:42;;;;;;;1.38;0.70;;;16.40;99.90;;;16.18;100.00;96834.41;5015035;28;20492;-38
2023/07/30 00:31:08;;;;;;;1.00;0.88;;;16.40;99.90;;;16.13;100.00;96825.06;5015455;28;20032;-38
2023/07/30 00:33:33;;;;;;;3.60;0.73;;;16.40;99.90;;;16.16;100.00;96843.47;5011556;28;20578;-40
2023/07/30 00:35:59;;;;;;;1.67;0.98;;;16.40;99.90;;;16.17;100.00;96851.34;5011621;28;20030;-38
2023/07/30 00:38:25;;;;;;;1.65;1.00;;;16.40;99.90;;;16.20;100.00;96851.16;5014378;28;20473;-38
2023/07/30 00:40:50;;;;;;;1.15;0.95;;;16.40;99.90;;;16.21;100.00;96847.50;5011193;28;20042;-40
2023/07/30 00:43:16;;;;;;;1.20;0.90;;;16.40;99.90;;;16.23;100.00;96850.06;5014454;28;20164;-38
2023/07/30 00:45:44;;;;;;;1.10;0.90;;;16.40;99.90;;;16.16;100.00;96844.31;5009516;28;20064;-39
2023/07/30 00:48:14;;;;;;;1.38;1.02;;;16.40;99.90;;;16.18;100.00;96847.72;5032948;28;20025;-38
2023/07/30 00:50:40;;;;;;;1.33;1.00;;;16.40;99.90;;;16.16;100.00;96852.28;5014954;28;20067;-39
2023/07/30 00:53:08;;;;;;;1.77;1.20;;;16.40;99.90;;;16.14;100.00;96848.88;5014144;28;20063;-38
2023/07/30 00:55:35;;;;;;;2.65;1.48;;;16.30;99.90;;;16.14;100.00;96856.88;5015155;28;20378;-38
2023/07/30 00:58:02;;;;;;;4.45;2.00;;;16.30;99.90;;;16.16;100.00;96849.63;5012545;28;20072;-38
2023/07/30 01:00:29;;;;;;;2.03;1.70;;;16.30;99.90;;;16.17;100.00;96858.50;5010128;28;20076;-39
2023/07/30 01:02:55;;;;;;;3.55;1.80;;;16.40;99.90;;;16.20;100.00;96861.78;5009491;28;20033;-38
2023/07/30 01:05:21;;;;;;;2.40;1.67;;;16.40;99.90;;;16.21;100.00;96863.47;5015422;28;20068;-38
2023/07/30 01:07:47;;;;;;;2.13;1.45;;;16.40;99.90;;;16.18;100.00;96857.50;5011791;28;20167;-39
2023/07/30 01:10:13;;;;;;;2.97;1.73;;;16.50;99.90;;;16.30;100.00;96871.81;5013004;28;20069;-38
2023/07/30 01:12:40;;;;;;;4.28;2.10;;;16.50;99.90;;;16.32;100.00;96860.06;5012107;28;20035;-38
2023/07/30 01:15:07;;;;;;;2.20;2.00;;;16.50;99.90;;;16.27;100.00;96846.25;5010675;28;20045;-39
2023/07/30 01:17:33;;;;;;;2.88;2.40;;;16.50;99.90;;;16.42;100.00;96863.81;5011883;28;20222;-39
2023/07/30 01:19:59;;;;;;;4.47;2.38;;;16.60;99.90;;;16.46;100.00;96867.13;5011790;28;20129;-40
2023/07/30 01:22:25;;;;;;;2.92;2.20;;;16.60;99.90;;;16.47;100.00;96871.47;5012452;28;20029;-38
2023/07/30 01:24:51;;;;;;;3.05;2.33;;;16.70;99.90;;;16.52;100.00;96869.34;5015977;28;20730;-38
2023/07/30 01:27:41;;;;;;;3.42;2.00;;;16.70;99.90;;;16.56;100.00;96876.19;5018125;28;20026;-38
2023/07/30 01:30:22;;;;;;;3.42;2.03;;;16.70;99.90;;;16.59;100.00;96867.97;5012663;28;20030;-38
2023/07/30 01:32:50;;;;;;;3.42;2.47;;;16.70;99.90;;;16.60;100.00;96868.84;5015063;28;20045;-38
2023/07/30 01:35:18;;;;;;;2.67;2.30;;;16.80;99.90;;;16.60;100.00;96863.50;5005662;28;20053;-39
2023/07/30 01:37:45;;;;;;;4.13;2.60;;;16.80;99.90;;;16.60;100.00;96869.69;5007903;28;20033;-39
2023/07/30 01:40:11;;;;;;;2.85;2.10;;;16.80;99.90;;;16.60;100.00;96875.00;5010800;28;20380;-38
2023/07/30 01:42:37;;;;;;;3.97;2.38;;;16.80;99.90;;;16.54;100.00;96863.91;5012435;28;20504;-39
2023/07/30 01:45:03;;;;;;;3.33;2.55;;;16.80;99.90;;;16.59;100.00;96878.59;5013857;28;20030;-39
2023/07/30 01:47:29;;;;;;;3.72;2.60;;;16.80;99.90;;;16.58;100.00;96868.06;5017592;28;20033;-37
2023/07/30 01:49:54;;;;;;;4.35;2.28;;;16.80;99.90;;;16.55;100.00;96886.94;5011503;28;20389;-38
2023/07/30 01:52:20;;;;;;;3.58;2.25;;;16.70;99.90;;;16.52;100.00;96887.97;5013767;28;20045;-38
2023/07/30 01:54:46;;;;;;;2.45;2.13;;;16.70;99.90;;;16.54;100.00;96887.88;5013520;28;20517;-38
2023/07/30 01:57:12;;;;;;;2.55;2.00;;;16.70;99.90;;;16.44;100.00;96874.38;5013804;28;20037;-38
2023/07/30 01:59:39;;;;;;;2.60;2.22;;;16.70;99.90;;;16.53;100.00;96886.19;5010473;28;21458;-39
2023/07/30 02:02:04;;;;;;;3.70;2.10;;;16.70;99.90;;;16.53;100.00;96896.84;5013494;28;20540;-38
2023/07/30 02:04:30;;;;;;;3.45;2.30;;;16.70;99.90;;;16.53;100.00;96883.53;5007204;28;20022;-38
2023/07/30 02:06:56;;;;;;;2.30;2.05;;;16.70;99.90;;;16.53;100.00;96886.19;5006828;28;20153;-38
2023/07/30 02:09:21;;;;;;;2.05;1.80;;;16.70;99.90;;;16.56;100.00;96884.16;5013999;28;20175;-38
2023/07/30 02:11:47;;;;;;;3.45;2.05;;;16.70;99.90;;;16.58;100.00;96889.34;5007380;28;20087;-38
2023/07/30 02:14:13;;;;;;;3.05;2.00;;;16.80;99.90;;;16.56;100.00;96873.53;5014053;28;20521;-38
2023/07/30 02:16:38;;;;;;;1.90;1.70;;;16.70;99.90;;;16.57;100.00;96877.03;5006209;28;20036;-38
2023/07/30 02:19:04;;;;;;;1.92;1.60;;;16.70;99.90;;;16.58;100.00;96866.28;5008478;28;20728;-37
2023/07/30 02:21:32;;;;;;;1.77;1.45;;;16.80;99.90;;;16.54;100.00;96863.91;5011517;28;20049;-39
2023/07/30 02:23:59;;;;;;;2.33;1.70;;;16.80;99.90;;;16.57;100.00;96874.38;5007078;28;20040;-39
2023/07/30 02:26:24;;;;;;;2.22;1.88;;;16.80;99.90;;;16.56;100.00;96869.97;5010200;28;20641;-40
2023/07/30 02:28:50;;;;;;;2.25;1.75;;;16.70;99.90;;;16.53;100.00;96883.53;5011327;28;20068;-37
2023/07/30 02:31:16;;;;;;;2.25;1.50;;;16.70;99.90;;;16.51;100.00;96883.63;5008084;28;20053;-39
2023/07/30 02:33:41;;;;;;;1.80;1.50;;;16.70;99.90;;;16.46;100.00;96875.09;4995490;28;20111;-40
2023/07/30 02:36:07;;;;;;;2.22;1.60;;;16.70;99.90;;;16.41;100.00;96887.88;5000654;28;20029;-38
2023/07/30 02:38:33;;;;;;;2.20;1.65;;;16.60;99.90;;;16.37;100.00;96889.06;5015652;28;20034;-38
2023/07/30 02:40:59;;;;;;;2.05;1.80;;;16.50;99.90;;;16.35;100.00;96893.63;5006190;28;20037;-40
2023/07/30 02:43:24;;;;;;;2.70;2.03;;;16.50;99.90;;;16.35;100.00;96888.31;5007920;28;20037;-40
2023/07/30 02:45:50;;;;;;;2.67;1.67;;;16.50;99.90;;;16.37;100.00;96891.72;5005182;28;20029;-39
2023/07/30 02:48:16;;;;;;;2.03;1.50;;;16.50;99.90;;;16.40;100.00;96902.13;5012555;28;20474;-39
2023/07/30 02:50:42;;;;;;;2.58;2.10;;;16.50;99.90;;;16.40;100.00;96902.13;5011198;28;20061;-38
2023/07/30 02:53:08;;;;;;;3.17;1.77;;;16.60;99.90;;;16.38;100.00;96883.63;5010105;28;20065;-38
2023/07/30 02:55:34;;;;;;;2.38;1.75;;;16.60;99.90;;;16.33;100.00;96883.09;5006219;28;20045;-38
2023/07/30 02:57:59;;;;;;;2.38;1.90;;;16.50;99.90;;;16.23;100.00;96882.84;5013992;28;20040;-38
2023/07/30 03:00:25;;;;;;;3.35;2.13;;;16.40;99.90;;;16.22;100.00;96880.28;5010462;28;20037;-39
2023/07/30 03:02:51;;;;;;;2.55;1.92;;;16.40;99.90;;;16.16;100.00;96892.19;5008757;28;20639;-39
2023/07/30 03:05:16;;;;;;;2.03;1.83;;;16.40;99.90;;;16.12;100.00;96896.03;5010342;28;20044;-38
2023/07/30 03:07:42;;;;;;;3.10;2.42;;;16.30;99.90;;;16.09;100.00;96888.25;5012703;28;20509;-38
2023/07/30 03:10:08;;;;;;;4.13;2.30;;;16.30;99.90;;;16.07;100.00;96889.31;5008306;28;20049;-39
2023/07/30 03:12:34;;;;;;;2.40;2.20;;;16.30;99.90;;;16.04;100.00;96893.03;5010171;28;20044;-39
2023/07/30 03:15:00;;;;;;;2.38;1.85;;;16.20;99.90;;;16.05;100.00;96897.41;5009558;28;20033;-38
2023/07/30 03:17:25;;;;;;;2.95;2.35;;;16.20;99.90;;;16.03;100.00;96894.84;5010579;28;20068;-39
2023/07/30 03:19:51;;;;;;;2.88;2.38;;;16.30;99.90;;;16.08;100.00;96897.19;5007215;28;20044;-39
2023/07/30 03:22:17;;;;;;;2.28;2.05;;;16.30;99.90;;;16.12;100.00;96897.84;5009201;28;20202;-38
2023/07/30 03:24:42;;;;;;;2.00;1.80;;;16.30;99.90;;;16.18;100.00;96887.63;5010838;28;20044;-39
2023/07/30 03:27:08;;;;;;;3.33;2.70;;;16.40;99.90;;;16.21;100.00;96894.56;5008382;28;20528;-39
2023/07/30 03:29:34;;;;;;;4.18;2.15;;;16.40;99.90;;;16.21;100.00;96898.06;5007365;28;20060;-39
2023/07/30 03:32:00;;;;;;;2.90;2.10;;;16.40;99.90;;;16.21;100.00;96892.75;5006422;28;20829;-38
2023/07/30 03:34:25;;;;;;;2.22;1.80;;;16.40;99.90;;;16.22;100.00;96896.25;5010793;28;20033;-38
2023/07/30 03:36:51;;;;;;;4.50;1.90;;;16.40;99.90;;;16.23;100.00;96896.16;5002917;28;20068;-38
2023/07/30 03:39:17;;;;;;;2.58;2.10;;;16.40;99.90;;;16.22;100.00;96894.47;5009986;28;20033;-38
2023/07/30 03:41:43;;;;;;;3.42;2.17;;;16.40;99.90;;;16.21;100.00;96898.06;5008979;28;20057;-38
2023/07/30 03:44:08;;;;;;;3.50;2.20;;;16.40;99.90;;;16.22;100.00;96899.78;5008276;28;20020;-38
2023/07/30 03:46:34;;;;;;;2.53;1.88;;;16.40;99.90;;;16.23;100.00;96897.97;5025705;28;20025;-39
2023/07/30 03:49:01;;;;;;;2.85;2.00;;;16.40;99.90;;;16.25;100.00;96904.03;5006998;28;20029;-38
2023/07/30 03:51:27;;;;;;;2.50;2.10;;;16.50;99.90;;;16.27;100.00;96906.59;5008339;28;20112;-39
2023/07/30 03:53:53;;;;;;;3.10;2.10;;;16.50;99.90;;;16.29;100.00;96904.66;5009901;28;20029;-38
2023/07/30 03:56:18;;;;;;;3.22;2.30;;;16.50;99.90;;;16.29;100.00;96920.63;4999488;28;20030;-38
2023/07/30 03:58:44;;;;;;;5.45;2.03;;;16.50;99.90;;;16.32;100.00;96918.63;5008963;28;20060;-38
2023/07/30 04:01:10;;;;;;;2.88;1.90;;;16.50;99.90;;;16.36;100.00;96913.94;5010028;28;20026;-39
2023/07/30 04:03:35;;;;;;;3.40;2.38;;;16.50;99.90;;;16.37;100.00;96920.97;5006976;28;20036;-38
2023/07/30 04:06:01;;;;;;;2.45;2.00;;;16.60;99.90;;;16.35;100.00;96915.75;5008964;28;20029;-40
2023/07/30 04:08:27;;;;;;;2.83;1.80;;;16.60;99.90;;;16.45;100.00;96923.97;5009294;28;20057;-38
2023/07/30 04:10:52;;;;;;;3.42;1.90;;;16.60;99.90;;;16.49;100.00;96916.63;5005486;28;20052;-39
2023/07/30 04:13:18;;;;;;;4.47;2.22;;;16.70;99.90;;;16.50;100.00;96918.34;5007412;28;20037;-38
2023/07/30 04:15:44;;;;;;;2.72;2.00;;;16.70;99.90;;;16.51;100.00;96909.38;5002877;28;20528;-38
2023/07/30 04:18:09;;;;;;;2.25;1.88;;;16.70;99.90;;;16.51;100.00;96914.69;5004274;28;20067;-38
2023/07/30 04:20:35;;;;;;;1.90;1.70;;;16.70;99.90;;;16.50;100.00;96913.84;5007605;28;20044;-39
2023/07/30 04:23:01;;;;;;;3.50;2.20;;;16.70;99.90;;;16.54;100.00;96919.81;5008528;28;20091;-38
2023/07/30 04:25:26;;;;;;;1.98;1.80;;;16.70;99.90;;;16.46;100.00;96923.00;5009494;28;20026;-37
2023/07/30 04:27:52;;;;;;;1.55;1.40;;;16.70;99.90;;;16.53;100.00;96937.59;4999243;28;20111;-38
2023/07/30 04:30:18;;;;;;;1.90;1.70;;;16.70;99.90;;;16.50;100.00;96934.31;5009046;28;20034;-40
2023/07/30 04:32:43;;;;;;;2.58;1.60;;;16.70;99.90;;;16.55;100.00;96945.50;5005612;28;20030;-40
2023/07/30 04:35:09;;;;;;;2.10;1.52;;;16.70;99.90;;;16.55;100.00;96949.00;5006795;28;20477;-38
2023/07/30 04:37:35;;;;;;;2.10;1.73;;;16.70;99.90;;;16.58;100.00;96953.25;4998910;28;20178;-37
2023/07/30 04:40:00;;;;;;;2.03;1.73;;;16.70;99.90;;;16.59;100.00;96952.31;5001713;28;20178;-38
2023/07/30 04:42:26;;;;;;;1.70;1.60;;;16.80;99.90;;;16.61;100.00;96950.38;5000980;28;20056;-37
2023/07/30 04:44:52;;;;;;;3.75;1.33;;;16.80;99.90;;;16.64;100.00;96963.50;5002013;28;20033;-37
2023/07/30 04:47:17;;;;;;;2.92;2.10;;;16.80;99.90;;;16.64;100.00;96952.00;5008724;28;20465;-39
2023/07/30 04:49:43;;;;;;;2.38;1.60;;;16.80;99.90;;;16.61;100.00;96940.56;5007811;28;20048;-38
2023/07/30 04:52:09;;;;;;;1.95;1.40;;;16.80;99.90;;;16.65;100.00;96943.88;5010321;28;20033;-37
2023/07/30 04:54:36;;;;;;;2.85;1.50;;;16.90;99.90;;;16.64;100.00;96933.38;5005357;28;20038;-38
2023/07/30 04:57:02;;;;;;;1.60;1.40;;;16.90;99.90;;;16.74;100.00;96951.25;5005820;28;20059;-39
2023/07/30 04:59:28;;;;;;;1.73;1.55;;;17.00;99.90;;;16.78;100.00;96954.56;5008718;28;20359;-37
2023/07/30 05:01:54;;;;;;;1.60;1.50;;;17.00;99.90;;;16.80;100.00;96955.31;5004178;28;20550;-37
2023/07/30 05:04:19;;;;;;;1.73;1.52;;;17.00;99.90;;;16.82;100.00;96957.88;5007006;28;20026;-37
2023/07/30 05:06:45;;;;;;;2.10;1.60;;;17.00;99.90;;;16.83;100.00;96955.09;5006521;28;20390;-38
2023/07/30 05:09:13;;;;;;;4.22;1.40;;;17.00;99.90;;;16.84;100.00;96972.78;5008536;28;20033;-38
2023/07/30 05:11:39;;;;;;;2.50;1.30;;;17.00;99.90;;;16.83;100.00;96971.09;5005184;28;20026;-39
2023/07/30 05:14:05;;;;;;;1.88;1.50;;;17.00;99.90;;;16.80;100.00;96977.44;5003991;28;20216;-39
2023/07/30 05:16:30;;;;;;;2.75;1.52;;;17.00;99.90;;;16.75;100.00;96976.91;5010172;28;20017;-38
2023/07/30 05:18:56;;;;;;;1.63;1.52;;;17.00;99.90;;;16.81;100.00;96980.97;5004960;28;20125;-38
2023/07/30 05:21:22;;;;;;;2.63;1.80;;;17.00;99.90;;;16.80;100.00;96987.25;5007619;28;20076;-37
2023/07/30 05:23:47;;;;;;;1.92;1.55;;;17.00;99.90;;;16.81;100.00;96991.59;5006031;28;20025;-38
2023/07/30 05:26:13;;;;;;;2.10;1.70;;;17.00;99.90;;;16.80;100.00;96979.28;5007638;28;20103;-38
2023/07/30 05:28:39;;;;;;;1.98;1.60;;;17.00;99.90;;;16.80;100.00;96985.44;5000662;28;20285;-39
2023/07/30 05:31:04;;;;;;;2.35;1.58;;;17.00;99.90;;;16.84;100.00;96985.28;5003892;28;20423;-41
2023/07/30 05:33:30;;;;;;;3.15;1.90;;;17.00;99.90;;;16.84;100.00;96982.59;5006734;28;20029;-38
2023/07/30 05:35:56;;;;;;;1.88;1.55;;;17.00;99.90;;;16.87;100.00;96977.03;5005256;28;20309;-38
2023/07/30 05:38:22;;;;;;;5.22;1.90;;;17.00;99.90;;;16.91;100.00;96990.06;5008701;28;20096;-38
2023/07/30 05:40:47;;;;;;;2.35;1.55;;;17.10;99.90;;;16.96;100.00;96982.59;5006020;28;20112;-38
2023/07/30 05:43:13;;;;;;;2.30;1.50;;;17.10;99.90;;;16.98;100.00;96980.69;5009790;28;20477;-39
2023/07/30 05:45:39;;;;;;;1.63;1.50;;;17.20;99.90;;;17.00;100.00;96980.59;5002928;28;20036;-40
2023/07/30 05:48:05;;;;;;;1.75;1.40;;;17.20;99.90;;;17.04;100.00;96982.06;5002756;28;20068;-39
2023/07/30 05:50:30;;;;;;;2.92;1.50;;;17.20;99.90;;;17.09;100.00;96984.41;4994155;28;20033;-38
2023/07/30 05:52:56;;;;;;;1.85;1.48;;;17.20;99.90;;;17.09;100.00;96976.44;5010198;28;20160;-37
2023/07/30 05:55:22;;;;;;;2.35;1.30;;;17.30;99.90;;;17.18;100.00;96979.28;5009989;28;20087;-39
2023/07/30 05:57:47;;;;;;;1.42;1.30;;;17.40;99.90;;;17.39;100.00;96981.41;5012149;28;20497;-38
2023/07/30 06:00:13;;;;;;;1.38;1.27;;;17.50;99.90;;;17.49;100.00;96978.94;5010110;28;20038;-38
2023/07/30 06:02:39;;;;;;;2.08;1.55;;;17.60;99.90;;;17.64;100.00;96977.84;5009556;28;20056;-38
2023/07/30 06:05:05;;;;;;;3.35;1.17;;;17.80;99.90;;;17.72;100.00;96962.13;5008702;28;20951;-37
2023/07/30 06:07:30;;;;;;;1.92;1.15;;;17.90;99.90;;;17.96;100.00;96974.66;5010408;28;20108;-37
2023/07/30 06:09:56;;;;;;;1.83;1.40;;;18.10;99.90;;;18.20;100.00;96977.31;5005352;28;20148;-38
2023/07/30 06:12:22;;;;;;;2.13;1.30;;;18.30;99.90;;;18.40;100.00;96980.31;5006587;28;20037;-37
2023/07/30 06:14:47;;;;;;;2.05;1.40;;;18.50;99.90;;;18.58;100.00;96989.59;5010253;28;20129;-39
2023/07/30 06:17:13;;;;;;;1.77;1.25;;;18.70;99.90;;;18.64;100.00;96983.78;5006084;28;20398;-37
2023/07/30 06:19:39;;;;;;;1.38;1.17;;;18.80;99.90;;;18.72;100.00;96982.34;5009455;28;20026;-37
2023/07/30 06:22:04;;;;;;;1.83;1.40;;;18.90;99.90;;;18.80;100.00;96990.63;5009388;28;20026;-37
2023/07/30 06:24:30;;;;;;;1.65;1.20;;;19.00;99.90;;;18.83;100.00;96993.97;5012632;28;20504;-37
2023/07/30 06:26:56;;;;;;;4.15;1.80;;;19.00;99.90;;;18.79;100.00;96988.91;5008176;28;20533;-37
2023/07/30 06:29:22;;;;;;;3.10;1.73;;;19.00;99.90;;;18.75;100.00;96988.31;5011935;28;20486;-38
2023/07/30 06:31:47;;;;;;;2.25;1.70;;;19.00;99.90;;;18.71;100.00;96973.50;5004316;28;20139;-38
2023/07/30 06:34:13;;;;;;;4.18;1.80;;;19.00;99.90;;;18.60;100.00;96962.78;5014603;28;20045;-38
2023/07/30 06:36:39;;;;;;;2.35;1.95;;;18.90;99.90;;;18.70;100.00;96978.00;5012842;28;20068;-38
2023/07/30 06:39:04;;;;;;;2.30;1.90;;;18.90;99.90;;;18.90;100.00;96975.66;5011696;28;20619;-39
2023/07/30 06:41:30;;;;;;;3.03;2.03;;;19.00;99.90;;;19.06;100.00;96994.84;5011604;28;20037;-38
2023/07/30 06:43:56;;;;;;;2.00;1.80;;;19.20;99.90;;;19.17;100.00;97007.38;5007155;28;20037;-37
2023/07/30 06:46:21;;;;;;;3.70;1.70;;;19.30;99.90;;;19.25;100.00;97010.28;5013769;28;20056;-37
2023/07/30 06:48:47;;;;;;;2.22;1.70;;;19.50;99.90;;;19.34;100.00;97018.56;5004100;28;26072;-38
2023/07/30 06:51:13;;;;;;;3.03;1.42;;;19.60;99.90;;;19.46;100.00;97009.59;5013189;28;20549;-38
2023/07/30 06:53:39;;;;;;;1.65;1.50;;;19.70;99.90;;;19.46;100.00;97005.06;5012306;28;20623;-38
2023/07/30 06:56:05;;;;;;;2.38;1.67;;;19.70;99.90;;;19.49;100.00;97020.03;5014405;28;20033;-39
2023/07/30 06:58:30;;;;;;;1.60;1.40;;;19.70;99.90;;;19.43;100.00;97016.03;5013423;28;20042;-38
2023/07/30 07:00:56;;;;;;;1.90;1.30;;;19.60;99.90;;;19.37;100.00;97019.19;5015920;28;20133;-40
2023/07/30 07:03:22;;;;;;;1.73;1.30;;;19.60;99.90;;;19.30;100.00;97020.63;5014785;28;20033;-39
2023/07/30 07:05:55;;;;;;;1.65;1.20;;;19.50;99.90;;;19.19;100.00;97017.97;5008873;28;20030;-40
2023/07/30 07:08:21;;;;;;;3.13;1.58;;;19.40;99.90;;;19.10;100.00;97018.69;5014755;28;20029;-40
2023/07/30 07:10:47;;;;;;;2.17;1.20;;;19.30;99.90;;;19.06;100.00;97020.75;5008962;28;20041;-39
2023/07/30 07:13:16;;;;;;;1.13;0.93;;;19.30;99.90;;;19.04;100.00;97033.34;5012287;28;20045;-39
2023/07/30 07:15:43;;;;;;;1.92;1.50;;;19.20;99.90;;;18.93;100.00;97014.63;5012138;28;20037;-38
2023/07/30 07:18:09;;;;;;;1.42;1.30;;;19.20;99.90;;;19.02;100.00;97037.97;5008311;28;20052;-38
2023/07/30 07:20:36;;;;;;;1.42;1.27;;;19.20;99.90;;;19.04;100.00;97041.34;5009529;28;20099;-38
2023/07/30 07:23:02;;;;;;;1.40;1.20;;;19.20;99.90;;;19.10;100.00;97030.22;5012384;28;20067;-38
2023/07/30 07:25:28;;;;;;;1.63;1.20;;;19.30;99.90;;;19.14;100.00;97046.88;5011800;28;20466;-38
2023/07/30 07:27:54;;;;;;;2.17;1.50;;;19.30;99.90;;;19.00;100.00;97045.25;5013342;28;20637;-38
2023/07/30 07:30:19;;;;;;;2.20;1.70;;;19.30;99.90;;;18.95;100.00;97050.09;5013702;28;20049;-38
2023/07/30 07:32:49;;;;;;;2.80;1.65;;;19.20;99.90;;;18.88;100.00;97063.91;5009895;28;20564;-38
2023/07/30 07:35:16;;;;;;;1.65;1.30;;;19.20;99.90;;;18.77;100.00;97077.22;5010067;28;20687;-41
2023/07/30 07:37:41;;;;;;;2.92;1.40;;;19.10;99.90;;;18.67;100.00;97086.88;5007598;28;20050;-37
2023/07/30 07:40:09;;;;;;;6.65;1.75;;;18.90;99.90;;;18.48;100.00;97076.69;5011398;28;20154;-39
2023/07/30 07:42:35;;;;;;;1.52;1.30;;;18.80;99.90;;;18.29;100.00;97063.88;5013262;28;20049;-38
2023/07/30 07:45:01;;;;;;;1.92;1.10;;;18.60;99.90;;;18.07;100.00;97053.91;5010295;28;20033;-38
2023/07/30 07:47:27;;;;;;;1.73;1.15;;;18.40;99.90;;;17.99;100.00;97053.63;5013289;28;20036;-38
2023/07/30 07:49:52;;;;;;;4.30;1.17;;;18.30;99.90;;;17.83;100.00;97059.19;5007270;28;20033;-38
2023/07/30 07:52:19;;;;;;;2.75;1.38;;;18.20;99.90;;;17.81;100.00;97071.78;5008130;28;21148;-38
2023/07/30 07:54:45;;;;;;;1.90;1.33;;;18.10;99.90;;;17.91;100.00;97072.88;5011009;28;20459;-39
2023/07/30 07:57:10;;;;;;;1.60;1.20;;;18.10;99.90;;;18.07;100.00;97081.47;5010853;28;20088;-39
2023/07/30 07:59:36;;;;;;;1.48;1.00;;;18.30;99.90;;;18.26;100.00;97075.63;5016700;28;20040;-38
2023/07/30 08:02:02;;;;;;;2.03;1.10;;;18.50;99.90;;;18.62;100.00;97073.00;5013673;28;20030;-38
2023/07/30 08:04:28;;;;;;;2.92;1.15;;;18.80;99.90;;;18.80;100.00;97052.91;5011656;28;20592;-39
2023/07/30 08:06:54;;;;;;;2.38;1.23;;;19.10;99.90;;;19.16;100.00;97071.66;5010997;28;20053;-39
2023/07/30 08:09:19;;;;;;;4.65;1.60;;;19.30;99.90;;;19.37;100.00;97069.13;5014671;28;20387;-39
2023/07/30 08:11:45;;;;;;;1.95;1.20;;;19.50;99.90;;;19.45;100.00;97058.69;5006656;28;20044;-39
2023/07/30 08:14:11;;;;;;;3.95;1.38;;;19.70;99.90;;;19.62;100.00;97073.41;5012261;28;20410;-38
2023/07/30 08:16:36;;;;;;;1.77;1.17;;;19.90;99.90;;;19.65;100.00;97078.53;5015618;28;20033;-38
2023/07/30 08:19:02;;;;;;;2.78;1.20;;;20.00;99.90;;;19.70;100.00;97076.31;5003729;28;20052;-39
2023/07/30 08:21:28;;;;;;;1.85;1.08;;;20.00;99.90;;;19.84;100.00;97078.78;5017280;28;20036;-41
2023/07/30 08:23:54;;;;;;;5.30;1.58;;;20.10;99.90;;;19.86;100.00;97078.66;5009070;28;20037;-41
2023/07/30 08:26:19;;;;;;;1.45;1.30;;;20.20;99.90;;;19.83;100.00;97062.88;5009976;28;20049;-38
2023/07/30 08:28:45;;;;;;;5.38;1.13;;;20.30;99.90;;;20.12;100.00;97067.72;5002127;28;20048;-39
2023/07/30 08:31:11;;;;;;;1.35;1.20;;;20.40;99.90;;;20.39;100.00;97069.97;4993157;28;20037;-38
2023/07/30 08:33:36;;;;;;;1.63;1.20;;;20.70;99.90;;;20.62;100.00;97075.25;5010903;28;20053;-40
2023/07/30 08:36:02;;;;;;;2.20;1.20;;;21.00;99.90;;;20.81;100.00;97072.75;4991741;28;20476;-41
2023/07/30 08:38:30;;;;;;;1.40;1.10;;;21.10;99.90;;;20.74;100.00;97071.56;5006119;28;20120;-42
2023/07/30 08:40:55;;;;;;;1.50;1.23;;;21.20;99.90;;;20.80;100.00;97071.06;5009472;28;20084;-39
2023/07/30 08:43:21;;;;;;;1.55;1.10;;;21.20;99.90;;;20.98;100.00;97071.34;4997371;28;20429;-40
2023/07/30 08:45:47;;;;;;;3.90;1.38;;;21.30;99.90;;;20.88;100.00;97067.75;5004451;28;20041;-39
2023/07/30 08:48:13;;;;;;;3.33;1.25;;;21.30;99.90;;;20.97;100.00;97065.13;5003305;28;20045;-38
2023/07/30 08:50:40;;;;;;;2.20;1.15;;;21.30;99.90;;;21.09;100.00;97067.75;5000240;28;20790;-38
2023/07/30 08:53:08;;;;;;;1.80;1.10;;;21.40;99.90;;;21.05;100.00;97064.50;5004383;28;20036;-39
2023/07/30 08:55:34;;;;;;;3.22;1.30;;;21.40;99.90;;;20.93;100.00;97038.72;5000118;28;20442;-40
2023/07/30 08:58:04;;;;;;;1.30;1.10;;;21.40;99.90;;;20.97;100.00;97059.75;4999798;28;20022;-38
2023/07/30 09:00:38;;;;;;;1.48;1.08;;;21.40;99.90;;;21.01;100.00;97073.75;5010210;28;20068;-39
2023/07/30 09:03:04;;;;;;;1.83;1.33;;;21.40;99.90;;;21.00;100.00;97061.34;5003701;28;20040;-39
2023/07/30 09:05:31;;;;;;;2.47;1.45;;;21.40;99.90;;;21.07;100.00;97081.28;5019587;28;20577;-38
2023/07/30 09:07:58;;;;;;;2.05;1.48;;;21.40;99.90;;;21.25;100.00;97070.81;5008754;28;20067;-38
2023/07/30 09:10:26;;;;;;;2.28;1.45;;;21.50;99.90;;;21.36;100.00;97089.53;5009877;28;20493;-38
2023/07/30 09:12:59;;;;;;;2.42;1.45;;;21.70;99.90;;;21.31;100.00;97091.75;5012436;28;20570;-41
2023/07/30 09:15:32;;;;;;;2.85;1.23;;;21.70;99.90;;;21.45;100.00;97090.59;5013677;28;20413;-39
2023/07/30 09:18:00;;;;;;;3.33;1.33;;;21.80;99.90;;;21.46;100.00;97084.25;5000292;28;21969;-38
2023/07/30 09:20:26;;;;;;;3.22;1.30;;;21.90;99.90;;;21.52;100.00;97089.09;5003916;28;20030;-38
2023/07/30 09:22:52;;;;;;;2.85;1.35;;;22.00;99.90;;;21.43;100.00;97092.53;5004859;28;20039;-37
2023/07/30 09:25:21;;;;;;;2.78;1.58;;;21.90;99.90;;;21.33;100.00;97095.13;5009423;28;20380;-38
2023/07/30 09:27:53;;;;;;;2.88;1.50;;;21.80;99.90;;;21.19;100.00;97106.19;5008358;28;20393;-38
2023/07/30 09:30:24;;;;;;;1.55;1.10;;;21.70;99.90;;;21.29;100.00;97101.75;5006028;28;20068;-37
2023/07/30 09:32:54;;;;;;;1.92;1.48;;;21.70;99.90;;;21.10;100.00;97099.81;4996696;28;20121;-38
2023/07/30 09:35:20;;;;;;;2.88;1.40;;;21.60;99.90;;;20.90;100.00;97100.63;5007793;28;20029;-38
2023/07/30 09:37:46;;;;;;;3.55;1.30;;;21.50;99.90;;;20.93;100.00;97100.38;5007765;28;20477;-38
2023/07/30 09:40:18;;;;;;;1.83;1.50;;;21.40;99.90;;;20.77;100.00;97107.00;5007483;28;20054;-39
2023/07/30 09:42:46;;;;;;;3.25;1.50;;;21.30;99.90;;;20.73;100.00;97112.75;5014131;28;20408;-38
2023/07/30 09:45:26;;;;;;;3.45;1.45;;;21.30;99.90;;;20.86;100.00;97109.91;5007578;28;20647;-39
2023/07/30 09:47:56;;;;;;;2.80;1.50;;;21.30;99.90;;;20.71;100.00;97118.25;5012358;28;20041;-38
2023/07/30 09:50:22;;;;;;;4.65;1.63;;;21.30;99.90;;;20.60;100.00;97118.22;5004436;28;20099;-38
2023/07/30 09:52:49;;;;;;;2.00;1.33;;;21.10;99.90;;;20.56;100.00;97117.63;5009806;28;20057;-38
2023/07/30 09:55:15;;;;;;;1.65;1.45;;;21.00;99.90;;;20.59;100.00;97111.16;5006271;28;20729;-38
2023/07/30 09:57:41;;;;;;;2.88;1.60;;;21.10;99.90;;;20.71;100.00;97112.00;5017682;28;20103;-39
2023/07/30 10:00:10;;;;;;;2.03;1.50;;;21.20;99.90;;;21.03;100.00;97116.50;5006000;28;20518;-38
2023/07/30 10:02:41;;;;;;;2.85;1.48;;;21.50;99.90;;;21.29;100.00;97122.38;5003899;28;20502;-38
2023/07/30 10:05:14;;;;;;;3.07;1.60;;;21.80;99.90;;;21.53;100.00;97131.03;5006763;28;20063;-38
2023/07/30 10:07:48;;;;;;;2.80;1.80;;;22.00;99.90;;;21.32;100.00;97136.38;5011992;28;20041;-38
2023/07/30 10:10:14;;;;;;;2.30;1.50;;;22.00;99.90;;;21.60;100.00;97135.88;5007045;28;20108;-38